createdAt,value
2019-04-27T00:02:26.336Z,7.70
2019-04-27T00:05:35.016Z,7.70
2019-04-27T00:08:28.471Z,7.70
2019-04-27T00:11:42.153Z,7.70
2019-04-27T00:14:27.114Z,7.60
2019-04-27T00:17:45.907Z,7.70
2019-04-27T00:20:50.261Z,7.60
2019-04-27T00:23:37.546Z,7.60
2019-04-27T00:26:24.642Z,7.60
2019-04-27T00:29:13.647Z,7.70
2019-04-27T00:32:01.675Z,7.70
2019-04-27T00:34:49.250Z,7.70
2019-04-27T00:37:44.969Z,7.70
2019-04-27T00:40:41.462Z,7.80
2019-04-27T00:43:29.229Z,7.90
2019-04-27T00:46:16.971Z,7.80
2019-04-27T00:49:04.197Z,7.90
2019-04-27T00:51:53.461Z,8.00
2019-04-27T00:54:41.210Z,7.90
2019-04-27T00:57:48.205Z,8.00
2019-04-27T01:00:47.121Z,7.90
2019-04-27T01:03:43.056Z,7.80
2019-04-27T01:06:30.558Z,7.80
2019-04-27T01:09:18.034Z,7.90
2019-04-27T01:12:06.637Z,7.90
2019-04-27T01:14:54.604Z,7.80
2019-04-27T01:17:42.356Z,7.80
2019-04-27T01:20:30.146Z,7.80
2019-04-27T01:23:19.303Z,7.80
2019-04-27T01:26:23.558Z,7.70
2019-04-27T01:29:13.596Z,7.70
2019-04-27T01:32:01.529Z,7.60
2019-04-27T01:34:49.462Z,7.50
2019-04-27T01:37:38.650Z,7.40
2019-04-27T01:40:26.415Z,7.40
2019-04-27T01:43:13.896Z,7.30
2019-04-27T01:46:01.982Z,7.10
2019-04-27T01:48:49.685Z,7.10
2019-04-27T01:51:39.076Z,7.00
2019-04-27T01:54:29.058Z,7.00
2019-04-27T01:57:16.273Z,6.90
2019-04-27T02:00:06.080Z,6.90
2019-04-27T02:02:56.451Z,6.80
2019-04-27T02:05:53.475Z,6.80
2019-04-27T02:08:41.563Z,6.90
2019-04-27T02:11:29.412Z,6.80
2019-04-27T02:14:16.830Z,6.70
2019-04-27T02:17:04.419Z,6.70
2019-04-27T02:19:52.324Z,6.80
2019-04-27T02:22:39.691Z,6.90
2019-04-27T02:25:27.141Z,7.00
2019-04-27T02:28:30.720Z,7.10
2019-04-27T02:31:43.573Z,7.10
2019-04-27T02:34:33.580Z,7.20
2019-04-27T02:37:21.440Z,7.20
2019-04-27T02:40:26.295Z,7.30
2019-04-27T02:43:14.769Z,7.10
2019-04-27T02:46:02.583Z,7.20
2019-04-27T02:48:58.641Z,7.20
2019-04-27T02:52:04.242Z,7.30
2019-04-27T02:54:51.962Z,7.10
2019-04-27T02:57:40.023Z,7.10
2019-04-27T03:00:28.812Z,7.10
2019-04-27T03:03:16.650Z,6.90
2019-04-27T03:06:04.398Z,6.90
2019-04-27T03:08:54.163Z,6.90
2019-04-27T03:11:42.183Z,6.90
2019-04-27T03:14:47.357Z,6.90
2019-04-27T03:17:52.633Z,6.80
2019-04-27T03:20:50.532Z,6.70
2019-04-27T03:23:38.064Z,6.70
2019-04-27T03:26:33.621Z,6.60
2019-04-27T03:29:23.001Z,6.50
2019-04-27T03:32:12.740Z,6.50
2019-04-27T03:35:02.949Z,6.50
2019-04-27T03:37:50.114Z,6.40
2019-04-27T03:40:40.376Z,6.30
2019-04-27T03:43:30.016Z,6.20
2019-04-27T03:46:16.819Z,6.10
2019-04-27T03:49:04.657Z,6.10
2019-04-27T03:52:03.019Z,6.10
2019-04-27T03:54:56.254Z,5.90
2019-04-27T03:57:49.828Z,5.90
2019-04-27T04:00:39.663Z,5.80
2019-04-27T04:03:29.551Z,5.70
2019-04-27T04:06:15.776Z,5.70
2019-04-27T04:09:05.313Z,5.50
2019-04-27T04:12:02.288Z,5.60
2019-04-27T04:14:49.448Z,5.50
2019-04-27T04:17:36.770Z,5.50
2019-04-27T04:20:24.419Z,5.40
2019-04-27T04:23:11.772Z,5.30
2019-04-27T04:25:59.927Z,5.30
2019-04-27T04:28:49.871Z,5.20
2019-04-27T04:31:36.826Z,5.20
2019-04-27T04:34:24.147Z,5.20
2019-04-27T04:37:11.617Z,5.20
2019-04-27T04:39:59.903Z,5.10
2019-04-27T04:42:53.101Z,5.20
2019-04-27T04:45:50.150Z,5.10
2019-04-27T04:48:36.718Z,5.10
2019-04-27T04:51:24.100Z,5.10
2019-04-27T04:54:11.750Z,5.20
2019-04-27T04:56:59.546Z,5.30
2019-04-27T04:59:51.064Z,5.30
2019-04-27T05:02:36.408Z,5.50
2019-04-27T05:05:23.832Z,5.60
2019-04-27T05:08:11.279Z,5.80
2019-04-27T05:10:59.668Z,5.90
2019-04-27T05:13:47.420Z,6.00
2019-04-27T05:16:34.845Z,6.00
2019-04-27T05:19:22.612Z,6.10
2019-04-27T05:22:10.144Z,6.30
2019-04-27T05:25:00.529Z,6.20
2019-04-27T05:27:49.341Z,6.20
2019-04-27T05:30:36.914Z,6.50
2019-04-27T05:33:24.501Z,6.60
2019-04-27T05:36:12.287Z,6.70
2019-04-27T05:38:59.927Z,6.90
2019-04-27T05:41:47.097Z,7.00
2019-04-27T05:45:04.401Z,7.20
2019-04-27T05:48:16.934Z,7.40
2019-04-27T05:51:04.262Z,7.40
2019-04-27T05:53:51.709Z,7.50
2019-04-27T05:56:39.150Z,7.60
2019-04-27T05:59:26.761Z,7.70
2019-04-27T06:02:14.553Z,7.90
2019-04-27T06:05:01.826Z,8.00
2019-04-27T06:07:49.544Z,8.20
2019-04-27T06:10:38.660Z,8.10
2019-04-27T06:13:28.710Z,8.10
2019-04-27T06:16:15.965Z,8.10
2019-04-27T06:19:03.405Z,8.00
2019-04-27T06:21:50.963Z,8.00
2019-04-27T06:24:39.698Z,8.00
2019-04-27T06:27:30.214Z,8.10
2019-04-27T06:30:16.485Z,8.10
2019-04-27T06:33:04.596Z,8.00
2019-04-27T06:35:52.534Z,8.10
2019-04-27T06:38:40.185Z,8.20
2019-04-27T06:41:29.269Z,8.10
2019-04-27T06:44:16.511Z,8.10
2019-04-27T06:47:03.852Z,8.10
2019-04-27T06:49:52.752Z,8.10
2019-04-27T06:52:46.732Z,8.10
2019-04-27T06:55:41.614Z,8.30
2019-04-27T06:58:34.896Z,8.60
2019-04-27T07:01:35.432Z,8.60
2019-04-27T07:04:27.318Z,8.70
2019-04-27T07:07:20.109Z,8.80
2019-04-27T07:10:49.100Z,8.80
2019-04-27T07:13:45.544Z,8.90
2019-04-27T07:16:59.316Z,9.10
2019-04-27T07:19:52.813Z,9.20
2019-04-27T07:22:45.721Z,9.30
2019-04-27T07:25:39.899Z,9.30
2019-04-27T07:28:33.095Z,9.30
2019-04-27T07:31:31.924Z,9.40
2019-04-27T07:34:24.602Z,9.50
2019-04-27T07:37:15.454Z,9.60
2019-04-27T07:40:18.967Z,9.70
2019-04-27T07:43:21.190Z,9.90
2019-04-27T07:46:09.889Z,10.30
2019-04-27T07:49:00.704Z,10.40
2019-04-27T07:51:53.904Z,10.40
2019-04-27T07:54:42.427Z,10.30
2019-04-27T07:57:31.666Z,10.50
2019-04-27T08:00:20.652Z,10.50
2019-04-27T08:03:09.818Z,10.60
2019-04-27T08:05:59.938Z,10.70
2019-04-27T08:08:49.212Z,10.60
2019-04-27T08:11:40.109Z,10.60
2019-04-27T08:14:30.937Z,10.60
2019-04-27T08:17:19.903Z,10.60
2019-04-27T08:20:09.113Z,10.70
2019-04-27T08:22:59.813Z,10.80
2019-04-27T08:25:48.725Z,10.70
2019-04-27T08:29:01.536Z,10.60
2019-04-27T08:31:56.282Z,10.60
2019-04-27T08:34:43.713Z,10.80
2019-04-27T08:37:31.175Z,11.00
2019-04-27T08:40:19.369Z,11.30
2019-04-27T08:43:08.925Z,11.30
2019-04-27T08:45:56.005Z,11.50
2019-04-27T08:48:43.425Z,11.50
2019-04-27T08:51:31.093Z,11.80
2019-04-27T08:54:19.258Z,11.90
2019-04-27T08:57:06.634Z,12.10
2019-04-27T08:59:54.063Z,12.20
2019-04-27T09:02:47.083Z,12.20
2019-04-27T09:05:30.720Z,12.20
2019-04-27T09:08:31.201Z,12.30
2019-04-27T09:11:41.640Z,12.20
2019-04-27T09:14:41.261Z,12.30
2019-04-27T09:17:35.444Z,12.30
2019-04-27T09:20:34.728Z,12.30
2019-04-27T09:23:22.580Z,12.20
2019-04-27T09:26:18.607Z,12.30
2019-04-27T09:29:09.093Z,12.30
2019-04-27T09:32:01.518Z,12.20
2019-04-27T09:34:48.080Z,12.00
2019-04-27T09:37:36.612Z,11.90
2019-04-27T09:40:24.152Z,11.90
2019-04-27T09:43:12.246Z,11.90
2019-04-27T09:45:59.848Z,11.80
2019-04-27T09:50:10.583Z,11.70
2019-04-27T09:53:03.216Z,11.70
2019-04-27T09:56:05.786Z,11.70
2019-04-27T09:59:15.990Z,11.70
2019-04-27T10:02:03.722Z,11.70
2019-04-27T10:04:51.077Z,11.70
2019-04-27T10:07:38.228Z,11.90
2019-04-27T10:10:26.747Z,12.10
2019-04-27T10:13:14.405Z,12.10
2019-04-27T10:16:02.075Z,12.20
2019-04-27T10:18:49.515Z,12.20
2019-04-27T10:21:37.009Z,12.20
2019-04-27T10:24:25.810Z,12.20
2019-04-27T10:27:21.078Z,12.40
2019-04-27T10:30:10.440Z,12.60
2019-04-27T10:33:00.535Z,12.60
2019-04-27T10:35:50.920Z,12.50
2019-04-27T10:38:40.620Z,12.70
2019-04-27T10:41:31.801Z,12.80
2019-04-27T10:44:27.425Z,12.70
2019-04-27T10:47:17.819Z,12.70
2019-04-27T10:50:17.314Z,12.70
2019-04-27T10:53:19.198Z,13.00
2019-04-27T10:56:09.960Z,13.10
2019-04-27T10:58:57.904Z,12.80
2019-04-27T11:01:45.939Z,12.60
2019-04-27T11:05:03.309Z,12.70
2019-04-27T11:07:50.889Z,12.70
2019-04-27T11:10:41.641Z,12.70
2019-04-27T11:13:28.285Z,12.60
2019-04-27T11:16:16.580Z,12.60
2019-04-27T11:19:09.045Z,12.50
2019-04-27T11:21:59.006Z,12.40
2019-04-27T11:24:49.200Z,12.30
2019-04-27T11:27:59.261Z,12.40
2019-04-27T11:30:50.935Z,12.40
2019-04-27T11:33:42.294Z,12.50
2019-04-27T11:37:06.790Z,12.40
2019-04-27T11:39:57.868Z,12.30
2019-04-27T11:42:56.973Z,12.40
2019-04-27T11:45:47.508Z,12.30
2019-04-27T11:48:40.372Z,12.20
2019-04-27T11:51:33.362Z,12.30
2019-04-27T11:54:25.527Z,12.40
2019-04-27T11:57:13.690Z,12.50
2019-04-27T12:00:05.417Z,12.70
2019-04-27T12:02:58.232Z,12.80
2019-04-27T12:06:00.110Z,12.90
2019-04-27T12:08:48.993Z,12.90
2019-04-27T12:11:47.597Z,13.00
2019-04-27T12:14:43.416Z,13.00
2019-04-27T12:20:32.081Z,12.90
2019-04-27T12:23:42.210Z,12.90
2019-04-27T12:26:36.282Z,13.10
2019-04-27T12:29:41.257Z,13.10
2019-04-27T12:32:29.296Z,13.20
2019-04-27T12:35:16.919Z,13.10
2019-04-27T12:38:05.867Z,13.00
2019-04-27T12:40:53.714Z,12.90
2019-04-27T12:43:40.996Z,12.90
2019-04-27T12:46:28.568Z,12.90
2019-04-27T12:49:16.218Z,13.00
2019-04-27T12:52:03.788Z,13.10
2019-04-27T12:54:58.877Z,13.00
2019-04-27T12:58:10.926Z,13.10
2019-04-27T13:00:58.764Z,13.50
2019-04-27T13:03:46.431Z,13.80
2019-04-27T13:06:35.742Z,14.30
2019-04-27T13:09:23.253Z,14.90
2019-04-27T13:12:11.607Z,15.10
2019-04-27T13:14:58.883Z,14.80
2019-04-27T13:17:46.021Z,14.60
2019-04-27T13:20:33.554Z,14.90
2019-04-27T13:23:22.350Z,14.80
2019-04-27T13:26:10.132Z,14.90
2019-04-27T13:28:58.331Z,14.90
2019-04-27T13:31:46.138Z,14.90
2019-04-27T13:34:33.876Z,14.90
2019-04-27T13:37:39.031Z,14.60
2019-04-27T13:40:27.935Z,14.30
2019-04-27T13:43:21.822Z,14.20
2019-04-27T13:46:31.405Z,14.30
2019-04-27T13:49:37.210Z,14.60
2019-04-27T13:52:29.703Z,14.90
2019-04-27T13:55:16.024Z,15.20
2019-04-27T13:58:03.213Z,15.20
2019-04-27T14:00:50.718Z,15.10
2019-04-27T14:03:38.186Z,14.70
2019-04-27T14:06:25.553Z,14.70
2019-04-27T14:09:13.123Z,14.80
2019-04-27T14:12:07.613Z,14.90
2019-04-27T14:14:55.098Z,15.10
2019-04-27T14:17:42.485Z,14.80
2019-04-27T14:20:30.086Z,14.60
2019-04-27T14:23:19.238Z,14.40
2019-04-27T14:26:08.588Z,14.20
2019-04-27T14:28:55.769Z,14.10
2019-04-27T14:31:42.903Z,14.20
2019-04-27T14:34:30.396Z,14.10
2019-04-27T14:37:18.555Z,14.20
2019-04-27T14:40:08.473Z,14.20
2019-04-27T14:42:56.089Z,14.20
2019-04-27T14:45:43.738Z,14.30
2019-04-27T14:48:31.244Z,14.20
2019-04-27T14:51:18.782Z,14.10
2019-04-27T14:54:06.456Z,14.20
2019-04-27T14:56:53.847Z,14.00
2019-04-27T14:59:41.003Z,13.90
2019-04-27T15:02:28.765Z,13.70
2019-04-27T15:05:16.179Z,12.80
2019-04-27T15:08:08.325Z,11.90
2019-04-27T15:10:53.946Z,10.40
2019-04-27T15:13:43.129Z,9.30
2019-04-27T15:16:30.345Z,9.00
2019-04-27T15:31:29.255Z,8.70
2019-04-27T15:34:48.131Z,8.80
2019-04-27T15:37:56.381Z,8.70
2019-04-27T15:41:10.330Z,8.40
2019-04-27T15:44:05.925Z,8.50
2019-04-27T15:47:22.959Z,8.60
2019-04-27T15:50:35.539Z,8.40
2019-04-27T15:53:31.135Z,8.40
2019-04-27T15:56:25.563Z,8.60
2019-04-27T15:59:14.421Z,8.80
2019-04-27T16:02:12.217Z,9.20
2019-04-27T16:04:58.334Z,9.50
2019-04-27T16:07:49.299Z,9.60
2019-04-27T16:10:42.870Z,9.40
2019-04-27T16:13:33.149Z,9.20
2019-04-27T16:16:43.013Z,9.10
2019-04-27T16:19:50.250Z,8.90
2019-04-27T16:22:49.738Z,8.60
2019-04-27T16:25:48.479Z,8.30
2019-04-27T16:28:54.810Z,8.00
2019-04-27T16:32:02.645Z,7.90
2019-04-27T16:35:03.181Z,7.90
2019-04-27T16:38:34.815Z,8.10
2019-04-27T16:41:58.575Z,8.30
2019-04-27T16:44:53.753Z,8.50
2019-04-27T16:47:45.595Z,8.50
2019-04-27T16:50:35.465Z,8.60
2019-04-27T16:53:47.160Z,8.70
2019-04-27T16:56:38.023Z,8.70
2019-04-27T16:59:44.179Z,8.90
2019-04-27T17:02:40.074Z,8.80
2019-04-27T17:05:30.832Z,8.70
2019-04-27T17:08:22.332Z,8.60
2019-04-27T17:11:11.418Z,8.50
2019-04-27T17:14:10.465Z,8.50
2019-04-27T17:17:29.401Z,8.40
2019-04-27T17:20:20.987Z,8.50
2019-04-27T17:23:06.475Z,8.50
2019-04-27T17:25:57.163Z,8.50
2019-04-27T17:28:50.560Z,8.50
2019-04-27T17:31:41.251Z,9.30
2019-04-27T17:34:32.240Z,9.90
2019-04-27T17:37:19.869Z,10.00
2019-04-27T17:40:09.190Z,9.80
2019-04-27T17:42:59.753Z,9.80
2019-04-27T17:45:48.457Z,9.80
2019-04-27T17:48:35.403Z,9.80
2019-04-27T17:51:22.979Z,9.70
2019-04-27T17:54:11.888Z,9.60
2019-04-27T17:56:59.656Z,9.70
2019-04-27T17:59:51.404Z,9.70
2019-04-27T18:02:40.781Z,9.80
2019-04-27T18:05:39.027Z,9.80
2019-04-27T18:08:29.108Z,9.80
2019-04-27T18:11:21.694Z,9.50
2019-04-27T18:14:19.054Z,9.80
2019-04-27T18:17:10.274Z,9.90
2019-04-27T18:19:57.594Z,9.80
2019-04-27T18:22:52.513Z,9.30
2019-04-27T18:25:43.714Z,8.60
2019-04-27T18:28:32.049Z,8.10
2019-04-27T18:31:18.439Z,7.80
2019-04-27T18:34:08.576Z,7.60
2019-04-27T18:36:53.549Z,7.50
2019-04-27T18:39:40.962Z,7.50
2019-04-27T18:42:31.093Z,7.50
2019-04-27T18:45:18.262Z,7.50
2019-04-27T18:48:13.465Z,7.50
2019-04-27T18:51:12.632Z,7.50
2019-04-27T18:54:03.450Z,7.50
2019-04-27T18:56:55.801Z,7.60
2019-04-27T18:59:35.850Z,7.60
2019-04-27T19:02:22.612Z,7.70
2019-04-27T19:05:09.744Z,7.70
2019-04-27T19:07:56.536Z,7.60
2019-04-27T19:10:43.136Z,7.70
2019-04-27T19:13:29.740Z,7.90
2019-04-27T19:16:16.224Z,7.80
2019-04-27T19:19:04.606Z,7.90
2019-04-27T19:21:50.981Z,7.90
2019-04-27T19:24:37.634Z,7.80
2019-04-27T19:27:42.581Z,7.70
2019-04-27T19:30:39.857Z,7.70
2019-04-27T19:33:28.678Z,7.70
2019-04-27T19:36:15.024Z,7.70
2019-04-27T19:39:01.952Z,7.80
2019-04-27T19:41:58.009Z,7.70
2019-04-27T19:44:38.817Z,7.60
2019-04-27T19:47:25.233Z,7.60
2019-04-27T19:50:11.919Z,7.70
2019-04-27T19:52:58.927Z,7.60
2019-04-27T19:56:05.561Z,7.50
2019-04-27T19:59:01.382Z,7.40
2019-04-27T20:01:52.234Z,7.10
2019-04-27T20:04:42.888Z,7.00
2019-04-27T20:07:29.683Z,6.90
2019-04-27T20:10:32.226Z,6.80
2019-04-27T20:13:29.434Z,6.80
2019-04-27T20:16:18.499Z,6.70
2019-04-27T20:19:11.481Z,6.50
2019-04-27T20:21:58.536Z,6.40
2019-04-27T20:24:51.323Z,6.40
2019-04-27T20:27:52.054Z,6.50
2019-04-27T20:30:37.182Z,6.50
2019-04-27T20:33:32.730Z,6.30
2019-04-27T20:36:28.874Z,6.30
2019-04-27T20:39:15.685Z,6.30
2019-04-27T20:42:08.333Z,6.30
2019-04-27T20:44:55.555Z,6.30
2019-04-27T20:47:43.388Z,6.40
2019-04-27T20:50:30.908Z,6.40
2019-04-27T20:53:42.031Z,6.40
2019-04-27T20:56:30.547Z,6.50
2019-04-27T20:59:22.443Z,6.50
2019-04-27T21:02:27.502Z,6.50
2019-04-27T21:05:32.931Z,6.40
2019-04-27T21:08:23.443Z,6.30
2019-04-27T21:11:11.740Z,6.40
2019-04-27T21:14:11.303Z,6.50
2019-04-27T21:17:08.866Z,6.40
2019-04-27T21:20:07.880Z,6.40
2019-04-27T21:22:54.893Z,6.40
2019-04-27T21:25:46.003Z,6.40
2019-04-27T21:28:54.675Z,6.30
2019-04-27T21:31:44.208Z,6.40
2019-04-27T21:34:31.219Z,6.30
2019-04-27T21:37:22.449Z,6.30
2019-04-27T21:40:21.286Z,6.20
2019-04-27T21:43:30.395Z,6.20
2019-04-27T21:46:42.750Z,6.10
2019-04-27T21:49:42.268Z,6.00
2019-04-27T21:53:11.007Z,6.00
2019-04-27T21:56:05.441Z,5.90
2019-04-27T21:59:05.656Z,5.90
2019-04-27T22:02:24.661Z,5.80
2019-04-27T22:05:21.098Z,5.80
2019-04-27T22:08:16.390Z,5.80
2019-04-27T22:11:34.646Z,5.80
2019-04-27T22:14:30.573Z,5.70
2019-04-27T22:17:17.663Z,5.60
2019-04-27T22:20:05.763Z,5.70
2019-04-27T22:22:54.149Z,5.60
2019-04-27T22:25:42.090Z,5.60
2019-04-27T22:28:44.156Z,5.60
2019-04-27T22:31:18.540Z,5.60
2019-04-27T22:34:05.184Z,5.60
2019-04-27T22:36:51.724Z,5.50
2019-04-27T22:39:47.981Z,5.50
2019-04-27T22:42:52.728Z,5.50
2019-04-27T22:45:42.177Z,5.50
2019-04-27T22:48:28.365Z,5.40
2019-04-27T22:51:15.175Z,5.30
2019-04-27T22:54:01.781Z,5.30
2019-04-27T22:56:48.472Z,5.30
2019-04-27T22:59:57.896Z,5.30
2019-04-27T23:02:52.264Z,5.30
2019-04-27T23:05:40.527Z,5.40
2019-04-27T23:08:27.366Z,5.30
2019-04-27T23:11:13.840Z,5.30
2019-04-27T23:14:01.060Z,5.30
2019-04-27T23:16:49.777Z,5.30
2019-04-27T23:19:35.945Z,5.30
2019-04-27T23:22:22.394Z,5.30
2019-04-27T23:25:11.328Z,5.30
2019-04-27T23:27:57.742Z,5.20
2019-04-27T23:31:02.534Z,5.20
2019-04-27T23:33:51.478Z,5.30
2019-04-27T23:36:38.408Z,5.20
2019-04-27T23:39:25.166Z,5.10
2019-04-27T23:42:11.624Z,5.10
2019-04-27T23:44:58.061Z,5.00
2019-04-27T23:47:44.454Z,4.90
2019-04-27T23:50:32.772Z,4.90
2019-04-27T23:53:21.890Z,4.90
2019-04-27T23:56:08.803Z,4.90
2019-04-27T23:58:55.579Z,4.80
